메인 페이지
METAR-TAF:

METAR-TAF

공항 :

러레이도, 텍사스, 미국

위도: 27-33N, 경도: 099-28W, 고도: 155m

현재 날씨관측

예보는 52분 전, 23:56시(UTC)에 발표되었습니다.
동남동7kt
온도 39°C
습도 30%
기압 1009 hPa
시정: 16.1km
고도 8500ft 상공 구름 조금

METAR: KLRD 142356Z 12007KT 10SM FEW085 39/18 A2979 RMK AO2 SLP082 T03890183 10400 20356 56014

시각: 19:48 (00:48 UTC)

예보

예보는 1 시간 23분 전, 23:25시(UTC)에 발표되었습니다.
예보 대상 시간: 15일 00시부터 15일 24시까지 (UTC)
동남동11kt
시정: 10km
고도 25000ft 상공 구름 많음
일시적
15일 01시부터 15일 05시까지 (UTC)
동남동14kt, 순간 최대 풍속 20kt

TAF: KLRD 142325Z 1500/1524 12011KT P6SM BKN250 TEMPO 1501/1505 12014G20KT

4,000개 이상의 공항 관측 자료 및 예보 (METAR 및 TAF 보고).

지도상에서 검색 가능한 기상관측소가 노란 점과 빨간 점으로 표시되어 있습니다.

기상관측소 명을 보려면 표시 위로 마우스를 이동하세요.

날씨 관측과 예보를 보려면 클릭하세요.

지도 변경 : 확대하려면 엑스 표시가 있는 녹색 버튼, 축소하려면 빼기 표시가 있는 녹색 버튼, 다음 페이지의 지도를 보려면 녹색 화살표를 클릭하세요.


METAR-TAF: